Latest Weather Observations for Mount Moornapa

IDV60801

Issued at 1:35 am EST Thursday 17 April 2014 (issued every 30 minutes, with the page automatically refreshed every 10 minutes)

About weather observations | Map of weather stations | Latest weather observations for VIC | Other Formats
Station Details ID: 085296 Name: MOUNT MOORNAPA Lat: -37.75 Lon: 147.14 Height: 480.0 m
Data from the previous 72 hours. | See also: Recent months at Mount Moornapa
Date/Time
EST
Temp
°C
App
Temp
°C
Dew
Point
Rel
Hum
%
Delta-T
°C
Wind Press
QNH
hPa
Press
MSL
hPa
Rain
since 9 am
mm
Dir
 
Spd
km/h
Gust
km/h
Spd
kts
Gust
kts
17/01:30am 11.5 9.4 9.9 90 0.8 N 11 15 6 8 - - 0.2
17/01:00am 11.5 9.9 10.1 91 0.7 N 9 13 5 7 - - 0.2
17/12:30am 11.6 10.2 9.7 88 1.0 N 7 7 4 4 - - 0.2
17/12:00am 12.3 11.2 9.9 85 1.3 N 6 7 3 4 - - 0.2
 
Date/Time
EST
Temp
°C
App
Temp
°C
Dew
Point
Rel
Hum
%
Delta-T
°C
Wind Press
QNH
hPa
Press
MSL
hPa
Rain
since 9 am
mm
Dir
 
Spd
km/h
Gust
km/h
Spd
kts
Gust
kts
16/11:30pm 12.5 11.2 10.0 85 1.3 N 7 9 4 5 - - 0.2
16/11:00pm 11.6 10.3 10.0 90 0.8 N 7 9 4 5 - - 0.2
16/10:30pm 11.5 10.2 9.8 89 0.9 N 7 9 4 5 - - 0.2
16/10:00pm 12.0 10.5 9.2 83 1.4 N 7 9 4 5 - - 0.2
16/09:30pm 12.1 10.6 9.1 82 1.5 N 7 9 4 5 - - 0.2
16/09:00pm 11.7 10.1 8.9 83 1.4 N 7 9 4 5 - - 0.2
16/08:30pm 11.7 10.4 9.3 85 1.2 NE 6 11 3 6 - - 0.2
16/08:00pm 11.3 10.1 9.7 90 0.8 E 6 17 3 9 - - 0.2
16/07:30pm 11.4 10.6 9.7 89 0.9 E 4 7 2 4 - - 0.2
16/07:00pm 11.8 10.7 9.9 88 1.0 E 6 11 3 6 - - 0.2
16/06:30pm 11.5 10.4 9.8 89 0.9 ESE 6 9 3 5 - - 0.2
16/06:00pm 11.9 10.2 10.0 88 1.0 E 9 15 5 8 - - 0.2
16/05:30pm 12.4 11.2 10.3 87 1.1 ESE 7 15 4 8 - - 0.2
16/05:00pm 13.6 12.8 11.0 84 1.4 ESE 6 9 3 5 - - 0.2
16/04:30pm 14.6 13.7 10.8 78 2.1 ESE 6 11 3 6 - - 0.2
16/04:00pm 15.6 14.7 10.8 73 2.6 SE 6 9 3 5 - - 0.2
16/03:30pm 16.2 15.7 10.9 71 2.9 SE 4 7 2 4 - - 0.2
16/03:00pm 16.0 15.0 10.3 69 3.1 SE 6 9 3 5 - - 0.2
16/02:30pm 15.1 14.2 10.5 74 2.5 SE 6 9 3 5 - - 0.2
16/02:00pm 17.3 17.2 10.9 66 3.5 SE 2 11 1 6 - - 0.2
16/01:30pm 17.4 17.0 11.0 66 3.5 ESE 4 9 2 5 - - 0.2
16/01:00pm 17.2 17.4 11.9 71 3.0 SE 2 6 1 3 - - 0.2
16/12:30pm 16.1 15.4 10.2 68 3.2 SSE 4 6 2 3 - - 0.2
16/12:00pm 16.1 15.9 10.6 70 3.0 ESE 2 6 1 3 - - 0.2
16/11:30am 15.7 14.9 9.6 67 3.2 E 4 9 2 5 - - 0.0
16/11:00am 14.6 14.2 9.6 72 2.6 ESE 2 9 1 5 - - 0.0
16/10:30am 15.0 14.7 10.0 72 2.7 ESE 2 7 1 4 - - 0.0
16/10:00am 14.8 14.5 10.2 74 2.5 E 2 6 1 3 - - 0.0
16/09:30am 12.9 11.7 9.5 80 1.8 ENE 6 9 3 5 - - 0.0
16/09:00am 11.3 10.0 9.9 91 0.7 NE 7 11 4 6 - - 2.4
16/08:30am 9.8 8.3 9.0 95 0.4 NNE 7 11 4 6 - - 2.4
16/08:00am 9.6 8.3 9.3 98 0.2 E 6 9 3 5 - - 2.4
16/07:30am 8.8 7.1 8.5 98 0.1 NNE 7 9 4 5 - - 2.4
16/07:00am 9.1 7.1 8.8 98 0.2 NE 9 13 5 7 - - 2.4
16/06:30am 8.5 6.4 8.1 97 0.2 NNE 9 11 5 6 - - 2.2
16/06:00am 9.5 7.5 8.7 95 0.4 NE 9 11 5 6 - - 2.2
16/05:30am 9.7 8.7 8.8 94 0.5 E 4 7 2 4 - - 2.2
16/05:00am 9.5 8.1 8.7 95 0.4 E 6 7 3 4 - - 2.2
16/04:30am 9.4 8.4 8.8 96 0.3 ENE 4 7 2 4 - - 2.2
16/04:00am 9.8 8.3 9.0 95 0.4 NE 7 11 4 6 - - 2.2
16/03:30am 10.1 8.7 8.7 91 0.7 ENE 6 9 3 5 - - 2.2
16/03:00am 10.2 8.7 8.6 90 0.8 ENE 6 11 3 6 - - 2.2
16/02:30am 10.4 9.0 9.0 91 0.7 E 6 13 3 7 - - 2.2
16/02:00am 10.5 9.1 8.9 90 0.8 E 6 7 3 4 - - 2.2
16/01:30am 10.8 9.8 8.9 88 1.0 E 4 9 2 5 - - 2.2
16/01:00am 10.9 9.5 8.8 87 1.1 E 6 9 3 5 - - 2.2
16/12:30am 11.2 10.3 9.1 87 1.1 ENE 4 9 2 5 - - 2.2
16/12:00am 11.0 9.9 9.8 92 0.6 NE 6 11 3 6 - - 2.2
 
Date/Time
EST
Temp
°C
App
Temp
°C
Dew
Point
Rel
Hum
%
Delta-T
°C
Wind Press
QNH
hPa
Press
MSL
hPa
Rain
since 9 am
mm
Dir
 
Spd
km/h
Gust
km/h
Spd
kts
Gust
kts
15/11:30pm 10.7 10.0 10.1 96 0.3 NE 4 7 2 4 - - 2.2
15/11:00pm 10.8 9.7 10.0 95 0.4 N 6 11 3 6 - - 2.2
15/10:30pm 11.3 10.2 9.9 91 0.7 NNE 6 11 3 6 - - 2.2
15/10:00pm 11.1 10.0 9.9 92 0.6 NE 6 9 3 5 - - 2.2
15/09:30pm 11.1 10.0 10.0 93 0.6 ENE 6 13 3 7 - - 2.2
15/09:00pm 10.8 9.5 10.0 95 0.4 ENE 7 13 4 7 - - 2.2
15/08:30pm 11.0 9.9 10.1 94 0.5 NE 6 9 3 5 - - 2.2
15/08:00pm 11.1 9.9 10.3 95 0.4 NE 7 17 4 9 - - 2.2
15/07:30pm 10.9 9.8 10.6 98 0.2 ENE 7 15 4 8 - - 2.2
15/07:00pm 10.8 9.3 10.6 99 0.1 E 9 19 5 10 - - 2.2
15/06:30pm 10.7 9.2 10.5 99 0.1 ENE 9 15 5 8 - - 2.2
15/06:00pm 10.9 9.1 10.7 99 0.1 E 11 19 6 10 - - 2.2
15/05:30pm 11.4 10.5 11.2 99 0.1 E 7 19 4 10 - - 2.2
15/05:00pm 11.8 11.2 11.6 99 0.1 E 6 9 3 5 - - 2.2
15/04:30pm 12.0 11.4 11.8 99 0.1 E 6 11 3 6 - - 2.2
15/04:00pm 12.2 12.0 11.9 98 0.2 SE 4 7 2 4 - - 1.4
15/03:30pm 13.1 13.0 12.2 94 0.5 SE 4 7 2 4 - - 0.0
15/03:00pm 12.9 12.4 10.8 87 1.1 SE 4 6 2 3 - - 0.0
15/02:30pm 13.9 14.1 10.7 81 1.7 CALM 0 6 0 3 - - 0.0
15/02:00pm 14.1 14.2 11.4 84 1.5 SE 2 6 1 3 - - 0.0
15/01:30pm 13.4 13.4 11.1 86 1.2 SE 2 2 1 1 - - 0.0
15/01:00pm 13.3 12.8 10.8 85 1.3 SE 4 7 2 4 - - 0.0
15/12:30pm 13.6 12.9 10.0 79 1.9 SE 4 7 2 4 - - 0.0
15/12:00pm 14.3 14.0 10.1 76 2.2 SE 2 7 1 4 - - 0.0
15/11:30am 14.1 13.2 9.3 73 2.5 SSE 4 7 2 4 - - 0.0
15/11:00am 13.9 13.1 9.5 75 2.3 SE 4 7 2 4 - - 0.0
15/10:30am 13.3 13.1 9.0 75 2.2 CALM 0 0 0 0 - - 0.0
15/10:00am 12.7 12.4 8.6 76 2.1 CALM 0 0 0 0 - - 0.0
15/09:30am 12.5 12.2 8.8 78 1.9 CALM 0 0 0 0 - - 0.0
15/09:00am 11.4 9.5 6.7 73 2.3 N 6 7 3 4 - - 0.2
15/08:30am 11.2 8.7 6.7 74 2.2 N 9 13 5 7 - - 0.2
15/08:00am 9.9 6.6 6.6 80 1.6 N 13 15 7 8 - - 0.2
15/07:30am 8.8 5.6 6.8 87 1.0 N 13 19 7 10 - - 0.2
15/07:00am 7.9 5.1 7.0 94 0.4 N 11 13 6 7 - - 0.2
15/06:30am 8.3 6.1 7.9 97 0.2 NNE 9 11 5 6 - - 0.2
15/06:00am 9.8 8.6 8.2 90 0.8 E 4 6 2 3 - - 0.2
15/05:30am 9.8 8.6 7.9 88 0.9 E 4 6 2 3 - - 0.2
15/05:00am 9.4 8.6 8.0 91 0.7 E 2 7 1 4 - - 0.2
15/04:30am 9.2 8.0 8.0 92 0.6 SE 4 6 2 3 - - 0.2
15/04:00am 9.6 8.5 8.4 92 0.6 SE 4 4 2 2 - - 0.2
15/03:30am 9.2 8.1 8.3 94 0.4 SE 4 6 2 3 - - 0.2
15/03:00am 9.5 8.3 8.1 91 0.7 E 4 7 2 4 - - 0.2
15/02:30am 9.6 6.3 7.9 89 0.8 N 15 19 8 10 - - 0.2
15/02:00am 8.6 5.6 7.8 95 0.4 N 13 19 7 10 - - 0.2
15/01:30am 8.9 6.8 8.1 95 0.4 N 9 11 5 6 - - 0.2
15/01:00am 9.6 7.9 8.4 92 0.6 NNE 7 7 4 4 - - 0.2
15/12:30am 9.8 9.1 8.7 93 0.6 ENE 2 4 1 2 - - 0.2
15/12:00am 9.8 9.2 8.9 94 0.5 E 2 6 1 3 - - 0.2
 
Date/Time
EST
Temp
°C
App
Temp
°C
Dew
Point
Rel
Hum
%
Delta-T
°C
Wind Press
QNH
hPa
Press
MSL
hPa
Rain
since 9 am
mm
Dir
 
Spd
km/h
Gust
km/h
Spd
kts
Gust
kts
14/11:30pm 10.0 9.0 8.8 92 0.6 E 4 6 2 3 - - 0.2
14/11:00pm 10.2 9.9 8.8 91 0.7 CALM 0 4 0 2 - - 0.2
14/10:30pm 10.7 10.1 8.8 88 1.0 ENE 2 6 1 3 - - 0.2
14/10:00pm 10.5 9.8 8.6 88 1.0 ENE 2 6 1 3 - - 0.2
14/09:30pm 10.7 9.6 8.6 87 1.1 ENE 4 6 2 3 - - 0.2
14/09:00pm 10.5 9.5 8.8 89 0.9 E 4 6 2 3 - - 0.2
14/08:30pm 10.6 9.7 9.4 92 0.6 E 4 6 2 3 - - 0.2
14/08:00pm 10.6 9.4 9.5 93 0.6 E 6 9 3 5 - - 0.2
14/07:30pm 10.9 10.0 9.2 89 0.9 E 4 7 2 4 - - 0.2
14/07:00pm 10.9 9.7 9.7 92 0.6 ESE 6 7 3 4 - - 0.2
14/06:30pm 11.1 10.0 9.9 92 0.6 ESE 6 13 3 7 - - 0.2
14/06:00pm 11.3 10.2 10.0 92 0.7 ESE 6 7 3 4 - - 0.2
14/05:30pm 11.6 10.5 10.0 90 0.8 ESE 6 11 3 6 - - 0.2
14/05:00pm 12.0 11.4 10.4 90 0.8 SE 4 6 2 3 - - 0.2
14/04:30pm 12.4 11.7 10.1 86 1.2 SE 4 7 2 4 - - 0.2
14/04:00pm 13.3 12.2 9.9 80 1.8 ESE 6 11 3 6 - - 0.2
14/03:30pm 15.8 15.3 10.8 72 2.7 E 4 7 2 4 - - 0.0
14/03:00pm 15.1 14.3 9.5 69 3.0 ENE 4 6 2 3 - - 0.0
14/02:30pm 13.9 13.4 9.5 75 2.3 ENE 2 4 1 2 - - 0.0
14/02:00pm 14.1 13.6 9.5 74 2.4 ESE 2 4 1 2 - - 0.0
14/01:30pm 12.8 12.0 10.9 88 1.0 ESE 6 13 3 7 - - 0.0
14/01:00pm 13.3 12.4 10.8 85 1.3 SE 6 11 3 6 - - 0.0
14/12:30pm 13.8 13.3 10.6 81 1.7 SE 4 9 2 5 - - 0.0
14/12:00pm 14.2 14.2 11.0 81 1.7 SE 2 7 1 4 - - 0.0
14/11:30am 14.6 14.0 10.4 76 2.3 ESE 4 9 2 5 - - 0.0
14/11:00am 13.1 12.5 10.5 84 1.4 SSE 4 7 2 4 - - 0.0
14/10:30am 13.9 13.5 11.2 84 1.5 SE 4 7 2 4 - - 0.0
14/10:00am 13.2 12.9 11.3 88 1.0 SSE 4 9 2 5 - - 0.0
14/09:30am 12.1 12.3 10.5 90 0.8 CALM 0 0 0 0 - - 0.0
14/09:00am 11.6 11.4 10.3 92 0.7 SE 2 9 1 5 - - 1.0
14/08:30am 11.4 11.6 10.6 95 0.4 CALM 0 0 0 0 - - 1.0
14/08:00am 10.1 10.0 9.6 97 0.3 CALM 0 0 0 0 - - 1.0
14/07:30am 9.6 9.5 9.3 98 0.2 CALM 0 2 0 1 - - 1.0
14/07:00am 9.0 8.3 8.7 98 0.2 ENE 2 4 1 2 - - 1.0
14/06:30am 8.9 8.6 8.6 98 0.1 CALM 0 7 0 4 - - 1.0
14/06:00am 9.4 8.4 8.8 96 0.3 E 4 6 2 3 - - 1.0
14/05:30am 9.2 8.6 8.9 98 0.2 ENE 2 9 1 5 - - 1.0
14/05:00am 9.4 8.4 8.9 97 0.3 ENE 4 7 2 4 - - 1.0
14/04:30am 9.5 8.0 9.0 97 0.3 NE 7 9 4 5 - - 1.0
14/04:00am 9.6 8.4 9.5 99 0.1 NE 6 9 3 5 - - 1.0
14/03:30am 9.9 8.8 9.9 100 0.0 NNE 6 7 3 4 - - 0.8
14/03:00am 10.0 8.9 9.9 99 0.1 N 6 7 3 4 - - 0.8
14/02:30am 10.1 9.0 10.0 99 0.1 NE 6 11 3 6 - - 0.8
14/02:00am 10.5 10.3 10.3 99 0.1 SE 2 4 1 2 - - 0.4

Other Formats:

Comma delimited format used in spreadsheet applications
http://www.bom.gov.au/fwo/IDV60801/IDV60801.95913.axf

JavaScript Object Notation format (JSON) in row-major order
http://www.bom.gov.au/fwo/IDV60801/IDV60801.95913.json